Time;durP1;ratioP1;P1;durP2;ratioP2;P2;SDS_P1;SDS_P2;PMS_P1;PMS_P2;Temp;Humidity;BMP_temperature;BMP_pressure;BME280_temperature;BME280_humidity;BME280_pressure;Samples;Min_cycle;Max_cycle;Signal;HPM_P1;HPM_P2
2023/05/15 00:00:12;;;;;;;;;;;12.50;65.60;;;;;;5032621;28;20402;-77
2023/05/15 00:02:38;;;;;;;;;;;12.40;65.60;;;;;;5003879;28;19996;-77
2023/05/15 00:05:05;;;;;;;;;;;12.40;65.70;;;;;;5028566;28;19975;-76
2023/05/15 00:07:30;;;;;;;;;;;12.40;65.80;;;;;;5012868;28;20012;-76
2023/05/15 00:09:56;;;;;;;;;;;12.30;65.80;;;;;;5025652;28;20096;-76
2023/05/15 00:12:21;;;;;;;;;;;12.30;65.70;;;;;;5011243;28;20552;-76
2023/05/15 00:14:47;;;;;;;;;;;12.20;65.80;;;;;;5029452;28;19931;-77
2023/05/15 00:17:12;;;;;;;;;;;12.20;65.80;;;;;;5031929;28;19921;-77
2023/05/15 00:19:38;;;;;;;;;;;12.10;65.80;;;;;;5012983;28;19920;-78
2023/05/15 00:22:03;;;;;;;;;;;12.10;66.00;;;;;;5043260;28;19956;-77
2023/05/15 00:24:29;;;;;;;;;;;12.10;65.90;;;;;;5031705;28;19921;-76
2023/05/15 00:26:54;;;;;;;;;;;12.10;66.00;;;;;;5051073;28;19931;-77
2023/05/15 00:29:20;;;;;;;;;;;12.00;66.00;;;;;;5004177;28;19924;-76
2023/05/15 00:31:45;;;;;;;;;;;12.00;66.00;;;;;;5032790;28;20451;-77
2023/05/15 00:34:10;;;;;;;;;;;12.00;66.00;;;;;;5016153;28;19939;-77
2023/05/15 00:36:36;;;;;;;;;;;12.00;66.00;;;;;;5014080;28;19932;-77
2023/05/15 00:39:01;;;;;;;;;;;12.00;66.10;;;;;;5034031;28;20429;-77
2023/05/15 00:41:27;;;;;;;;;;;11.90;66.00;;;;;;5051184;28;19921;-77
2023/05/15 00:43:53;;;;;;;;;;;11.90;66.10;;;;;;4997997;28;19921;-77
2023/05/15 00:46:18;;;;;;;;;;;11.80;66.00;;;;;;4982458;28;19921;-76
2023/05/15 00:48:44;;;;;;;;;;;11.80;66.20;;;;;;5024488;28;19943;-76
2023/05/15 00:51:09;;;;;;;;;;;11.80;66.20;;;;;;5052208;28;19924;-77
2023/05/15 00:53:35;;;;;;;;;;;11.70;66.20;;;;;;4999002;28;20016;-77
2023/05/15 00:56:00;;;;;;;;;;;11.70;66.30;;;;;;5039545;28;19921;-77
2023/05/15 00:58:26;;;;;;;;;;;11.70;66.30;;;;;;5025295;28;19928;-76
2023/05/15 01:00:51;;;;;;;;;;;11.60;66.30;;;;;;4979864;28;19952;-77
2023/05/15 01:03:17;;;;;;;;;;;11.60;66.30;;;;;;5030448;28;20039;-77
2023/05/15 01:05:42;;;;;;;;;;;11.60;66.30;;;;;;5016217;28;19936;-77
2023/05/15 01:08:15;;;;;;;;;;;11.50;66.40;;;;;;5030816;28;19971;-77
2023/05/15 01:10:40;;;;;;;;;;;11.50;66.40;;;;;;5042709;28;19967;-76
2023/05/15 01:13:06;;;;;;;;;;;11.50;66.50;;;;;;5030930;28;20008;-76
2023/05/15 01:15:31;;;;;;;;;;;11.50;66.50;;;;;;5031203;28;19964;-77
2023/05/15 01:17:57;;;;;;;;;;;11.40;66.40;;;;;;5025276;28;19927;-76
2023/05/15 01:20:22;;;;;;;;;;;11.40;66.50;;;;;;5009540;28;20392;-76
2023/05/15 01:22:51;;;;;;;;;;;11.40;66.50;;;;;;5013295;28;19926;-76
2023/05/15 01:25:24;;;;;;;;;;;11.40;66.60;;;;;;5012839;28;19925;-76
2023/05/15 01:27:50;;;;;;;;;;;11.30;66.50;;;;;;5015387;28;19925;-76
2023/05/15 01:30:17;;;;;;;;;;;11.30;66.60;;;;;;5022048;28;19928;-76
2023/05/15 01:32:46;;;;;;;;;;;11.30;66.70;;;;;;4996297;28;19925;-77
2023/05/15 01:35:44;;;;;;;;;;;11.30;66.70;;;;;;5031381;28;19941;-77
2023/05/15 01:38:12;;;;;;;;;;;11.20;66.60;;;;;;5013652;28;20322;-77
2023/05/15 01:40:37;;;;;;;;;;;11.20;66.60;;;;;;4997841;28;19922;-76
2023/05/15 01:43:06;;;;;;;;;;;11.20;66.80;;;;;;4982074;28;19928;-76
2023/05/15 01:45:32;;;;;;;;;;;11.10;66.70;;;;;;4989621;28;19957;-77
2023/05/15 01:47:57;;;;;;;;;;;11.10;66.80;;;;;;5010637;28;20111;-76
2023/05/15 01:50:23;;;;;;;;;;;11.10;66.80;;;;;;5028944;28;19930;-76
2023/05/15 01:52:52;;;;;;;;;;;11.10;66.80;;;;;;4995957;28;19921;-76
2023/05/15 01:55:19;;;;;;;;;;;11.10;66.90;;;;;;5015090;28;19921;-76
2023/05/15 01:57:45;;;;;;;;;;;11.10;66.80;;;;;;4997712;28;19921;-76
2023/05/15 02:00:11;;;;;;;;;;;11.00;66.80;;;;;;5029763;28;20303;-76
2023/05/15 02:02:36;;;;;;;;;;;11.00;66.80;;;;;;5030632;28;19929;-76
2023/05/15 02:05:02;;;;;;;;;;;11.00;66.90;;;;;;5009974;28;19925;-76
2023/05/15 02:07:27;;;;;;;;;;;10.90;66.90;;;;;;5028521;28;19964;-76
2023/05/15 02:09:53;;;;;;;;;;;10.90;67.00;;;;;;4992390;28;19926;-76
2023/05/15 02:12:18;;;;;;;;;;;10.90;67.10;;;;;;5024548;28;20381;-75
2023/05/15 02:14:44;;;;;;;;;;;10.90;67.00;;;;;;5010932;28;19928;-76
2023/05/15 02:17:10;;;;;;;;;;;10.90;67.10;;;;;;5015506;28;19924;-76
2023/05/15 02:19:35;;;;;;;;;;;10.80;67.10;;;;;;5014397;28;19921;-76
2023/05/15 02:22:01;;;;;;;;;;;10.80;67.00;;;;;;5024721;28;19917;-76
2023/05/15 02:24:26;;;;;;;;;;;10.80;67.10;;;;;;5007061;28;19998;-76
2023/05/15 02:26:55;;;;;;;;;;;10.80;67.10;;;;;;5001588;28;19920;-76
2023/05/15 02:29:29;;;;;;;;;;;10.80;67.10;;;;;;5050011;28;19917;-76
2023/05/15 02:31:58;;;;;;;;;;;10.70;67.10;;;;;;5005834;28;20566;-76
2023/05/15 02:34:33;;;;;;;;;;;10.70;67.20;;;;;;5029210;28;19925;-76
2023/05/15 02:36:59;;;;;;;;;;;10.80;67.30;;;;;;4999229;28;19928;-76
2023/05/15 02:39:25;;;;;;;;;;;10.70;67.20;;;;;;5032572;28;19928;-77
2023/05/15 02:41:51;;;;;;;;;;;10.70;67.20;;;;;;5014330;28;19928;-77
2023/05/15 02:44:16;;;;;;;;;;;10.70;67.20;;;;;;4996675;28;19921;-77
2023/05/15 02:46:42;;;;;;;;;;;10.70;67.20;;;;;;5032455;28;19972;-77
2023/05/15 02:49:07;;;;;;;;;;;10.70;67.30;;;;;;5007115;28;19940;-76
2023/05/15 02:51:33;;;;;;;;;;;10.60;67.20;;;;;;5012150;28;20027;-76
2023/05/15 02:53:59;;;;;;;;;;;10.60;67.30;;;;;;5013622;28;19940;-77
2023/05/15 02:56:25;;;;;;;;;;;10.60;67.30;;;;;;5014728;28;20000;-78
2023/05/15 02:58:50;;;;;;;;;;;10.60;67.30;;;;;;5048819;28;19921;-77
2023/05/15 03:01:16;;;;;;;;;;;10.50;67.30;;;;;;5014838;28;19967;-78
2023/05/15 03:03:41;;;;;;;;;;;10.50;67.30;;;;;;4997567;28;20418;-76
2023/05/15 03:06:07;;;;;;;;;;;10.50;67.30;;;;;;5014390;28;19951;-78
2023/05/15 03:08:32;;;;;;;;;;;10.40;67.40;;;;;;5021394;28;19952;-77
2023/05/15 03:10:57;;;;;;;;;;;10.40;67.40;;;;;;5046465;28;19921;-77
2023/05/15 03:13:23;;;;;;;;;;;10.40;67.40;;;;;;5031628;28;19966;-77
2023/05/15 03:15:48;;;;;;;;;;;10.30;67.50;;;;;;5012453;28;20379;-78
2023/05/15 03:18:14;;;;;;;;;;;10.30;67.50;;;;;;5033120;28;19973;-77
2023/05/15 03:20:39;;;;;;;;;;;10.30;67.50;;;;;;4998462;28;19928;-77
2023/05/15 03:23:05;;;;;;;;;;;10.20;67.50;;;;;;5031583;28;19924;-77
2023/05/15 03:25:30;;;;;;;;;;;10.20;67.60;;;;;;5031723;28;19948;-77
2023/05/15 03:27:56;;;;;;;;;;;10.20;67.60;;;;;;5015283;28;20005;-77
2023/05/15 03:30:21;;;;;;;;;;;10.10;67.60;;;;;;5013430;28;19921;-77
2023/05/15 03:32:49;;;;;;;;;;;10.10;67.70;;;;;;5030184;28;20420;-77
2023/05/15 03:35:14;;;;;;;;;;;10.10;67.70;;;;;;5014965;28;19921;-78
2023/05/15 03:37:40;;;;;;;;;;;10.00;67.80;;;;;;5030037;28;20322;-77
2023/05/15 03:40:06;;;;;;;;;;;10.00;67.70;;;;;;5033276;28;20454;-77
2023/05/15 03:42:31;;;;;;;;;;;10.00;68.60;;;;;;5033781;28;19956;-77
2023/05/15 03:44:57;;;;;;;;;;;10.00;67.80;;;;;;5034808;28;19924;-77
2023/05/15 03:47:22;;;;;;;;;;;10.00;67.80;;;;;;5016861;28;19988;-76
2023/05/15 03:49:48;;;;;;;;;;;9.90;67.80;;;;;;5017278;28;19928;-77
2023/05/15 03:52:13;;;;;;;;;;;10.00;67.90;;;;;;5058399;28;20020;-76
2023/05/15 03:54:39;;;;;;;;;;;10.00;67.90;;;;;;5030007;28;19925;-77
2023/05/15 03:57:05;;;;;;;;;;;9.90;67.90;;;;;;5047954;28;19921;-77
2023/05/15 03:59:30;;;;;;;;;;;9.90;67.90;;;;;;5049685;28;19921;-77
2023/05/15 04:01:56;;;;;;;;;;;10.00;68.00;;;;;;5028907;28;19995;-77
2023/05/15 04:04:21;;;;;;;;;;;9.90;67.90;;;;;;5033082;28;19982;-78
2023/05/15 04:06:47;;;;;;;;;;;9.90;67.90;;;;;;5048760;28;20402;-77
2023/05/15 04:09:12;;;;;;;;;;;9.90;67.90;;;;;;5032899;28;20299;-77
2023/05/15 04:11:38;;;;;;;;;;;9.90;67.90;;;;;;5016116;28;19962;-77
2023/05/15 04:14:03;;;;;;;;;;;9.90;67.90;;;;;;5030917;28;19928;-77
2023/05/15 04:16:29;;;;;;;;;;;9.90;67.90;;;;;;5048167;28;20730;-77
2023/05/15 04:18:54;;;;;;;;;;;9.90;67.90;;;;;;5046013;28;20065;-77
2023/05/15 04:21:20;;;;;;;;;;;9.90;67.90;;;;;;5048544;28;19921;-77
2023/05/15 04:23:45;;;;;;;;;;;9.90;68.00;;;;;;5035358;28;20292;-77
2023/05/15 04:26:11;;;;;;;;;;;9.90;67.90;;;;;;5033018;28;19921;-77
2023/05/15 04:28:36;;;;;;;;;;;10.00;68.10;;;;;;5033804;28;20439;-78
2023/05/15 04:31:02;;;;;;;;;;;10.00;68.00;;;;;;5032696;28;19968;-77
2023/05/15 04:33:27;;;;;;;;;;;10.00;68.00;;;;;;5049033;28;21830;-77
2023/05/15 04:35:52;;;;;;;;;;;10.00;68.00;;;;;;5032849;28;19921;-77
2023/05/15 04:38:18;;;;;;;;;;;10.00;68.00;;;;;;5015154;28;19917;-77
2023/05/15 04:40:44;;;;;;;;;;;10.00;68.00;;;;;;5011538;28;20016;-78
2023/05/15 04:43:09;;;;;;;;;;;10.00;67.90;;;;;;5016285;28;19970;-77
2023/05/15 04:45:35;;;;;;;;;;;10.00;67.90;;;;;;5031503;28;19921;-78
2023/05/15 04:48:00;;;;;;;;;;;10.00;67.90;;;;;;5015487;28;19920;-77
2023/05/15 04:50:26;;;;;;;;;;;10.00;68.00;;;;;;5038851;28;20714;-77
2023/05/15 04:52:51;;;;;;;;;;;10.10;68.00;;;;;;5015988;28;19932;-77
2023/05/15 04:55:17;;;;;;;;;;;10.10;68.00;;;;;;5035444;28;19932;-77
2023/05/15 04:57:42;;;;;;;;;;;10.10;67.90;;;;;;5045541;28;19928;-78
2023/05/15 05:00:11;;;;;;;;;;;10.20;68.00;;;;;;5018135;28;19936;-77
2023/05/15 05:02:39;;;;;;;;;;;10.20;68.00;;;;;;5034549;28;19921;-77
2023/05/15 05:05:06;;;;;;;;;;;10.20;67.90;;;;;;5046340;28;20298;-77
2023/05/15 05:07:31;;;;;;;;;;;10.20;67.80;;;;;;5015637;28;20008;-77
2023/05/15 05:09:57;;;;;;;;;;;10.30;67.80;;;;;;5033039;28;20007;-77
2023/05/15 05:12:22;;;;;;;;;;;10.40;67.90;;;;;;5049670;28;20441;-77
2023/05/15 05:14:48;;;;;;;;;;;10.40;67.80;;;;;;5036894;28;19941;-77
2023/05/15 05:17:13;;;;;;;;;;;10.40;67.70;;;;;;5003911;28;19917;-77
2023/05/15 05:19:39;;;;;;;;;;;10.50;67.70;;;;;;5036846;28;19956;-77
2023/05/15 05:22:04;;;;;;;;;;;10.50;67.70;;;;;;5020340;28;19924;-77
2023/05/15 05:24:30;;;;;;;;;;;10.50;67.60;;;;;;5037318;28;19964;-77
2023/05/15 05:26:59;;;;;;;;;;;10.60;67.70;;;;;;5017386;28;20335;-77
2023/05/15 05:29:25;;;;;;;;;;;10.60;67.60;;;;;;5020882;28;20031;-77
2023/05/15 05:31:50;;;;;;;;;;;10.70;67.70;;;;;;5040457;28;20007;-77
2023/05/15 05:34:16;;;;;;;;;;;10.70;67.60;;;;;;5020990;28;19925;-77
2023/05/15 05:36:41;;;;;;;;;;;10.70;67.60;;;;;;5038336;28;20008;-77
2023/05/15 05:39:07;;;;;;;;;;;10.80;67.60;;;;;;5035554;28;19920;-77
2023/05/15 05:41:32;;;;;;;;;;;10.80;67.50;;;;;;5038313;28;19928;-77
2023/05/15 05:43:57;;;;;;;;;;;10.90;67.50;;;;;;5050871;28;19921;-77
2023/05/15 05:46:23;;;;;;;;;;;10.90;67.50;;;;;;5036783;28;19921;-77
2023/05/15 05:48:48;;;;;;;;;;;11.00;67.50;;;;;;5035829;28;20466;-78
2023/05/15 05:51:14;;;;;;;;;;;11.00;67.40;;;;;;5011436;28;20048;-78
2023/05/15 05:53:39;;;;;;;;;;;11.00;67.40;;;;;;5049838;28;19921;-77
2023/05/15 05:56:05;;;;;;;;;;;11.10;67.40;;;;;;5051056;28;20391;-77
2023/05/15 05:58:30;;;;;;;;;;;11.10;67.40;;;;;;5035134;28;19967;-77
2023/05/15 06:00:56;;;;;;;;;;;11.10;67.40;;;;;;5049124;28;19924;-77
2023/05/15 06:03:21;;;;;;;;;;;11.20;67.40;;;;;;5008491;28;19932;-77
2023/05/15 06:05:47;;;;;;;;;;;11.30;67.40;;;;;;4984586;28;19979;-77
2023/05/15 06:08:13;;;;;;;;;;;11.30;67.40;;;;;;5017201;28;20346;-77
2023/05/15 06:10:38;;;;;;;;;;;11.40;67.30;;;;;;4986136;28;20399;-78
2023/05/15 06:13:04;;;;;;;;;;;11.40;67.20;;;;;;5027894;28;19929;-77
2023/05/15 06:15:29;;;;;;;;;;;11.50;67.20;;;;;;4999582;28;19932;-78
2023/05/15 06:17:55;;;;;;;;;;;11.60;67.20;;;;;;5013721;28;19921;-77
2023/05/15 06:20:20;;;;;;;;;;;11.70;67.20;;;;;;5015323;28;20043;-77
2023/05/15 06:22:46;;;;;;;;;;;11.80;67.20;;;;;;4994828;28;19932;-78
2023/05/15 06:25:13;;;;;;;;;;;11.90;67.20;;;;;;5011033;28;20414;-77
2023/05/15 06:27:39;;;;;;;;;;;11.90;67.10;;;;;;4998396;28;19925;-77
2023/05/15 06:30:05;;;;;;;;;;;12.00;67.00;;;;;;4997830;28;20474;-77
2023/05/15 06:32:32;;;;;;;;;;;12.10;66.90;;;;;;4999081;28;19925;-77
2023/05/15 06:34:58;;;;;;;;;;;12.20;66.80;;;;;;4996472;28;19921;-77
2023/05/15 06:37:23;;;;;;;;;;;12.40;66.80;;;;;;4998302;28;19932;-77
2023/05/15 06:39:49;;;;;;;;;;;12.50;66.70;;;;;;4998047;28;19917;-78
2023/05/15 06:42:14;;;;;;;;;;;12.60;66.80;;;;;;4998102;28;21143;-78
2023/05/15 06:44:39;;;;;;;;;;;12.70;66.50;;;;;;5015361;28;19924;-78
2023/05/15 06:47:05;;;;;;;;;;;12.80;66.50;;;;;;5007097;28;20016;-77
2023/05/15 06:49:30;;;;;;;;;;;13.00;66.40;;;;;;4996151;28;20094;-77
2023/05/15 06:51:56;;;;;;;;;;;13.10;66.40;;;;;;5018595;28;19922;-77
2023/05/15 06:54:21;;;;;;;;;;;13.20;66.20;;;;;;4987927;28;19964;-77
2023/05/15 06:56:47;;;;;;;;;;;13.30;66.10;;;;;;5018305;28;19929;-78
2023/05/15 06:59:12;;;;;;;;;;;13.50;66.10;;;;;;5003183;28;19925;-78
2023/05/15 07:01:38;;;;;;;;;;;13.60;66.10;;;;;;5014887;28;20568;-78
2023/05/15 07:04:03;;;;;;;;;;;13.80;65.90;;;;;;5031614;28;19925;-77
2023/05/15 07:06:30;;;;;;;;;;;14.00;65.90;;;;;;5034449;28;19921;-78
2023/05/15 07:08:56;;;;;;;;;;;14.10;65.70;;;;;;5015816;28;19940;-77
2023/05/15 07:11:22;;;;;;;;;;;14.30;65.70;;;;;;5028566;28;19942;-77
2023/05/15 07:13:47;;;;;;;;;;;14.50;65.60;;;;;;5018398;28;20635;-78
2023/05/15 07:16:13;;;;;;;;;;;14.60;65.30;;;;;;5016221;28;19935;-77
2023/05/15 07:18:38;;;;;;;;;;;14.80;65.20;;;;;;5033746;28;19928;-78
2023/05/15 07:21:04;;;;;;;;;;;14.90;65.20;;;;;;5016871;28;20002;-77
2023/05/15 07:23:29;;;;;;;;;;;15.00;65.00;;;;;;5049992;28;20000;-77
2023/05/15 07:25:55;;;;;;;;;;;15.20;64.90;;;;;;5031062;28;19913;-77
2023/05/15 07:28:20;;;;;;;;;;;15.40;65.00;;;;;;5035627;28;20364;-78
2023/05/15 07:30:45;;;;;;;;;;;15.50;64.70;;;;;;5014893;28;19963;-77
2023/05/15 07:33:11;;;;;;;;;;;15.70;64.60;;;;;;5014791;28;19933;-77
2023/05/15 07:35:36;;;;;;;;;;;15.90;64.60;;;;;;5034414;28;19920;-77
2023/05/15 07:38:02;;;;;;;;;;;16.00;64.40;;;;;;5049844;28;19967;-77
2023/05/15 07:40:27;;;;;;;;;;;16.20;64.30;;;;;;5016222;28;21615;-77
2023/05/15 07:42:53;;;;;;;;;;;16.40;64.10;;;;;;5015359;28;19921;-78
2023/05/15 07:45:18;;;;;;;;;;;16.60;64.10;;;;;;5017710;28;20330;-78
2023/05/15 07:47:45;;;;;;;;;;;16.80;63.90;;;;;;5014524;28;19970;-77
2023/05/15 07:50:10;;;;;;;;;;;17.00;63.80;;;;;;5034001;28;19920;-77
2023/05/15 07:52:36;;;;;;;;;;;17.10;63.60;;;;;;5015835;28;19931;-77
2023/05/15 07:55:01;;;;;;;;;;;17.30;63.50;;;;;;5015658;28;19927;-77
2023/05/15 07:57:27;;;;;;;;;;;17.50;63.40;;;;;;5017939;28;19964;-77
2023/05/15 07:59:53;;;;;;;;;;;17.60;63.10;;;;;;5034060;28;20375;-77
2023/05/15 08:02:18;;;;;;;;;;;17.80;63.00;;;;;;5015010;28;19928;-78
2023/05/15 08:04:44;;;;;;;;;;;18.00;62.90;;;;;;5019753;28;19917;-76
2023/05/15 08:07:09;;;;;;;;;;;18.20;62.80;;;;;;5017042;28;20479;-77
2023/05/15 08:09:35;;;;;;;;;;;18.30;62.60;;;;;;5008371;28;19941;-77
2023/05/15 08:12:19;;;;;;;;;;;18.50;62.50;;;;;;4997421;28;19921;-77
2023/05/15 08:14:48;;;;;;;;;;;18.60;62.40;;;;;;5004760;28;19929;-77
2023/05/15 08:17:14;;;;;;;;;;;18.80;62.20;;;;;;5004136;28;20006;-77
2023/05/15 08:19:40;;;;;;;;;;;18.90;62.10;;;;;;5029510;28;20153;-77
2023/05/15 08:22:05;;;;;;;;;;;19.10;62.00;;;;;;5033704;28;19921;-76
2023/05/15 08:24:31;;;;;;;;;;;19.30;61.80;;;;;;5021007;28;19921;-78
2023/05/15 08:26:56;;;;;;;;;;;19.40;61.70;;;;;;5001983;28;19925;-77
2023/05/15 08:29:22;;;;;;;;;;;19.60;61.60;;;;;;5000169;28;19952;-77
2023/05/15 08:31:47;;;;;;;;;;;19.80;61.40;;;;;;4999308;28;19922;-77
2023/05/15 08:34:13;;;;;;;;;;;19.90;61.20;;;;;;5001453;28;19929;-77
2023/05/15 08:36:38;;;;;;;;;;;20.10;61.10;;;;;;5018657;28;19921;-77
2023/05/15 08:39:05;;;;;;;;;;;20.20;60.90;;;;;;5001745;28;20004;-77
2023/05/15 08:41:32;;;;;;;;;;;20.40;60.90;;;;;;5011635;28;19921;-77
2023/05/15 08:43:58;;;;;;;;;;;20.50;60.70;;;;;;4995012;28;19921;-77
2023/05/15 08:46:23;;;;;;;;;;;20.60;60.60;;;;;;4985787;28;20004;-77
2023/05/15 08:48:49;;;;;;;;;;;20.80;60.50;;;;;;4985572;28;19921;-78
2023/05/15 08:51:14;;;;;;;;;;;21.00;60.30;;;;;;5006044;28;19928;-77
2023/05/15 08:53:40;;;;;;;;;;;21.20;60.10;;;;;;5003015;28;19987;-77
2023/05/15 08:56:05;;;;;;;;;;;21.30;59.90;;;;;;5017784;28;19929;-77
2023/05/15 08:58:31;;;;;;;;;;;21.50;59.90;;;;;;5026119;28;20346;-77
2023/05/15 09:00:56;;;;;;;;;;;21.60;59.70;;;;;;4989282;28;20008;-77
2023/05/15 09:03:23;;;;;;;;;;;21.70;59.60;;;;;;5020592;28;20508;-77
2023/05/15 09:05:48;;;;;;;;;;;21.90;59.60;;;;;;5037382;28;19917;-78
2023/05/15 09:08:14;;;;;;;;;;;22.10;59.40;;;;;;5020710;28;19917;-78
2023/05/15 09:10:39;;;;;;;;;;;22.40;59.30;;;;;;5018101;28;20523;-77
2023/05/15 09:13:05;;;;;;;;;;;22.50;59.10;;;;;;5017573;28;19975;-76
2023/05/15 09:15:31;;;;;;;;;;;22.70;58.90;;;;;;5018855;28;20086;-75
2023/05/15 09:17:56;;;;;;;;;;;22.90;58.70;;;;;;5017193;28;19925;-77
2023/05/15 09:20:28;;;;;;;;;;;23.10;58.60;;;;;;5018443;28;19921;-76
2023/05/15 09:22:54;;;;;;;;;;;23.20;58.40;;;;;;5027115;28;21325;-77
2023/05/15 09:25:33;;;;;;;;;;;23.40;58.20;;;;;;5051647;28;19928;-77
2023/05/15 09:27:59;;;;;;;;;;;23.50;58.10;;;;;;5040145;28;19957;-77
2023/05/15 09:30:25;;;;;;;;;;;23.50;57.90;;;;;;5023979;28;20127;-77
2023/05/15 09:32:51;;;;;;;;;;;23.70;58.00;;;;;;5020713;28;20002;-77
2023/05/15 09:35:46;;;;;;;;;;;23.70;57.80;;;;;;5022765;28;20367;-78
2023/05/15 09:38:11;;;;;;;;;;;23.90;57.70;;;;;;5011961;28;19924;-78
2023/05/15 09:40:37;;;;;;;;;;;24.10;57.50;;;;;;5004102;28;20330;-78
2023/05/15 09:43:02;;;;;;;;;;;24.30;57.40;;;;;;5029978;28;20470;-77
2023/05/15 09:45:28;;;;;;;;;;;24.40;57.10;;;;;;5005301;28;20489;-77
2023/05/15 09:47:54;;;;;;;;;;;24.60;57.00;;;;;;5019032;28;19928;-78
2023/05/15 09:50:31;;;;;;;;;;;24.70;56.90;;;;;;5017981;28;20443;-78
2023/05/15 09:52:57;;;;;;;;;;;24.80;56.80;;;;;;5018504;28;20655;-77
2023/05/15 09:55:23;;;;;;;;;;;24.90;56.70;;;;;;5016427;28;19929;-77
2023/05/15 09:58:09;;;;;;;;;;;25.10;56.50;;;;;;5018592;28;19921;-77
2023/05/15 10:00:35;;;;;;;;;;;25.20;56.40;;;;;;5016709;28;19921;-78
2023/05/15 10:03:01;;;;;;;;;;;25.20;56.30;;;;;;5016091;28;19936;-78
2023/05/15 10:05:28;;;;;;;;;;;25.20;56.30;;;;;;5036889;28;19944;-78
2023/05/15 10:07:53;;;;;;;;;;;25.20;56.30;;;;;;5033108;28;19925;-77
2023/05/15 10:10:19;;;;;;;;;;;25.20;56.20;;;;;;5014376;28;19928;-77
2023/05/15 10:12:44;;;;;;;;;;;25.30;56.20;;;;;;5031948;28;20725;-78
2023/05/15 10:15:10;;;;;;;;;;;25.30;56.20;;;;;;5029396;28;19921;-77
2023/05/15 10:17:35;;;;;;;;;;;25.20;56.10;;;;;;5034154;28;19972;-77
2023/05/15 10:20:01;;;;;;;;;;;25.20;56.20;;;;;;5014591;28;20535;-77
2023/05/15 10:22:28;;;;;;;;;;;25.20;56.20;;;;;;5027854;28;19921;-78
2023/05/15 10:25:06;;;;;;;;;;;25.20;56.30;;;;;;5023506;28;19928;-78
2023/05/15 10:27:31;;;;;;;;;;;25.20;56.20;;;;;;5027975;28;19925;-78
2023/05/15 10:29:57;;;;;;;;;;;25.30;56.20;;;;;;4998976;28;19925;-78
2023/05/15 10:32:23;;;;;;;;;;;25.40;56.20;;;;;;5015348;28;19948;-78
2023/05/15 10:34:48;;;;;;;;;;;25.40;56.00;;;;;;5032283;28;19978;-79
2023/05/15 10:37:14;;;;;;;;;;;25.30;56.00;;;;;;4992572;28;20391;-77
2023/05/15 10:39:39;;;;;;;;;;;25.30;56.00;;;;;;5049771;28;19978;-76
2023/05/15 10:42:05;;;;;;;;;;;25.30;56.00;;;;;;4995106;28;19925;-78
2023/05/15 10:44:31;;;;;;;;;;;25.40;56.00;;;;;;5049291;28;20339;-76
2023/05/15 10:46:56;;;;;;;;;;;25.60;56.00;;;;;;5033181;28;19927;-76
2023/05/15 10:49:21;;;;;;;;;;;25.70;55.70;;;;;;5001364;28;19977;-77
2023/05/15 10:51:47;;;;;;;;;;;25.90;55.60;;;;;;5002166;28;19920;-77
2023/05/15 10:54:12;;;;;;;;;;;26.10;55.40;;;;;;5006968;28;20556;-77
2023/05/15 10:56:38;;;;;;;;;;;26.30;55.20;;;;;;5038248;28;19967;-77
2023/05/15 10:59:05;;;;;;;;;;;26.50;55.10;;;;;;5027442;28;19936;-77
2023/05/15 11:01:32;;;;;;;;;;;26.60;54.90;;;;;;5020151;28;19943;-77
2023/05/15 11:04:10;;;;;;;;;;;26.90;54.90;;;;;;5016508;28;19929;-76
2023/05/15 11:06:36;;;;;;;;;;;27.00;54.70;;;;;;5049893;28;19920;-77
2023/05/15 11:09:20;;;;;;;;;;;27.00;54.60;;;;;;5052084;28;19998;-77
2023/05/15 11:11:59;;;;;;;;;;;27.00;54.60;;;;;;5032469;28;19920;-77
2023/05/15 11:14:25;;;;;;;;;;;26.90;54.60;;;;;;5045729;28;19990;-78
2023/05/15 11:16:53;;;;;;;;;;;26.80;54.60;;;;;;5049825;28;19921;-77
2023/05/15 11:19:28;;;;;;;;;;;26.80;54.60;;;;;;5035228;28;19921;-78
2023/05/15 11:21:56;;;;;;;;;;;26.60;54.60;;;;;;5037772;28;19955;-77
2023/05/15 11:24:31;;;;;;;;;;;26.60;54.80;;;;;;5038019;28;19920;-78
2023/05/15 11:27:00;;;;;;;;;;;26.70;55.00;;;;;;5018483;28;19925;-78
2023/05/15 11:29:26;;;;;;;;;;;26.80;54.80;;;;;;5035595;28;19970;-78
2023/05/15 11:31:51;;;;;;;;;;;26.90;54.60;;;;;;5047190;28;19925;-77
2023/05/15 11:34:30;;;;;;;;;;;27.00;54.40;;;;;;5036279;28;19928;-77
2023/05/15 11:36:57;;;;;;;;;;;27.10;54.10;;;;;;5051288;28;20624;-78
2023/05/15 11:39:22;;;;;;;;;;;27.10;54.20;;;;;;5031306;28;20003;-80
2023/05/15 11:41:48;;;;;;;;;;;27.10;54.20;;;;;;5052142;28;20383;-78
2023/05/15 11:44:18;;;;;;;;;;;27.20;54.20;;;;;;5032822;28;20011;-77
2023/05/15 11:46:43;;;;;;;;;;;27.20;53.20;;;;;;5035240;28;20786;-77
2023/05/15 11:49:09;;;;;;;;;;;27.20;53.70;;;;;;5019008;28;19928;-77
2023/05/15 11:51:35;;;;;;;;;;;27.10;53.80;;;;;;5050842;28;19991;-77
2023/05/15 11:54:00;;;;;;;;;;;27.10;53.90;;;;;;5041683;28;19933;-77
2023/05/15 11:56:29;;;;;;;;;;;27.00;53.90;;;;;;5021329;28;19925;-78
2023/05/15 11:58:55;;;;;;;;;;;27.00;54.10;;;;;;5027404;28;19925;-76
2023/05/15 12:01:21;;;;;;;;;;;26.90;54.10;;;;;;5012778;28;20026;-76
2023/05/15 12:03:47;;;;;;;;;;;26.80;54.10;;;;;;5028931;28;20736;-77
2023/05/15 12:06:13;;;;;;;;;;;26.70;54.30;;;;;;4999075;28;19925;-77
2023/05/15 12:08:38;;;;;;;;;;;26.70;54.30;;;;;;5050494;28;19942;-77
2023/05/15 12:11:04;;;;;;;;;;;26.60;54.40;;;;;;5019636;28;19917;-77
2023/05/15 12:13:30;;;;;;;;;;;26.60;54.40;;;;;;5034726;28;19932;-76
2023/05/15 12:15:55;;;;;;;;;;;26.50;54.50;;;;;;5048933;28;19966;-76
2023/05/15 12:18:21;;;;;;;;;;;26.50;54.50;;;;;;5033899;28;19917;-76
2023/05/15 12:20:48;;;;;;;;;;;26.50;54.50;;;;;;5015960;28;19928;-76
2023/05/15 12:23:14;;;;;;;;;;;26.40;54.50;;;;;;5035288;28;19921;-77
2023/05/15 12:25:40;;;;;;;;;;;26.50;54.60;;;;;;5050590;28;19921;-77
2023/05/15 12:28:05;;;;;;;;;;;26.50;54.50;;;;;;5049933;28;19921;-77
2023/05/15 12:30:31;;;;;;;;;;;26.50;54.50;;;;;;5027189;28;19938;-76
2023/05/15 12:33:00;;;;;;;;;;;26.60;54.50;;;;;;5029160;28;19921;-78
2023/05/15 12:35:25;;;;;;;;;;;26.70;54.30;;;;;;5049670;28;19932;-77
2023/05/15 12:37:51;;;;;;;;;;;26.80;54.20;;;;;;5034100;28;19925;-76
2023/05/15 12:40:18;;;;;;;;;;;27.00;54.20;;;;;;5020985;28;20018;-78
2023/05/15 12:42:44;;;;;;;;;;;27.10;54.10;;;;;;5038359;28;20581;-78
2023/05/15 12:45:16;;;;;;;;;;;27.20;54.60;;;;;;5022313;28;19924;-78
2023/05/15 12:47:42;;;;;;;;;;;27.30;53.80;;;;;;5018000;28;19928;-78
2023/05/15 12:50:15;;;;;;;;;;;27.60;53.80;;;;;;5050505;28;19971;-76
2023/05/15 12:52:45;;;;;;;;;;;27.60;53.90;;;;;;5019261;28;19921;-78
2023/05/15 12:55:14;;;;;;;;;;;27.70;53.40;;;;;;5049911;28;20472;-78
2023/05/15 12:57:40;;;;;;;;;;;27.70;53.40;;;;;;5018009;28;21408;-77
2023/05/15 13:00:08;;;;;;;;;;;27.60;53.30;;;;;;5029496;28;20006;-77
2023/05/15 13:02:34;;;;;;;;;;;27.70;54.10;;;;;;5008565;28;19935;-77
2023/05/15 13:05:01;;;;;;;;;;;27.70;53.40;;;;;;5013024;28;19925;-74
2023/05/15 13:07:27;;;;;;;;;;;27.70;53.30;;;;;;5026748;28;19932;-77
2023/05/15 13:10:06;;;;;;;;;;;27.80;53.40;;;;;;5026512;28;19921;-78
2023/05/15 13:12:44;;;;;;;;;;;27.70;53.30;;;;;;5003310;28;20052;-77
2023/05/15 13:15:25;;;;;;;;;;;27.90;53.40;;;;;;5010647;28;20020;-78
2023/05/15 13:17:57;;;;;;;;;;;28.00;53.30;;;;;;5024321;28;19987;-79
2023/05/15 13:20:22;;;;;;;;;;;28.10;53.10;;;;;;5004516;28;19931;-78
2023/05/15 13:22:48;;;;;;;;;;;28.00;53.10;;;;;;5007823;28;19925;-78
2023/05/15 13:25:17;;;;;;;;;;;28.10;53.10;;;;;;5005033;28;19925;-77
2023/05/15 13:27:43;;;;;;;;;;;27.90;53.00;;;;;;5007419;28;20015;-77
2023/05/15 13:30:09;;;;;;;;;;;27.80;53.10;;;;;;5024911;28;19924;-78
2023/05/15 13:32:34;;;;;;;;;;;27.90;53.30;;;;;;5010585;28;19927;-78
2023/05/15 13:35:00;;;;;;;;;;;28.00;53.30;;;;;;5015086;28;20342;-78
2023/05/15 13:37:26;;;;;;;;;;;28.00;53.00;;;;;;5027682;28;20793;-78
2023/05/15 13:39:51;;;;;;;;;;;28.10;53.00;;;;;;5029727;28;19963;-78
2023/05/15 13:42:17;;;;;;;;;;;28.10;53.00;;;;;;5010362;28;20016;-77
2023/05/15 13:44:42;;;;;;;;;;;28.10;52.90;;;;;;5024018;28;19925;-78
2023/05/15 13:47:08;;;;;;;;;;;28.20;52.90;;;;;;5014991;28;20036;-79
2023/05/15 13:49:33;;;;;;;;;;;28.20;52.90;;;;;;5010240;28;20362;-78
2023/05/15 13:51:58;;;;;;;;;;;28.20;52.80;;;;;;5007682;28;19925;-77
2023/05/15 13:54:24;;;;;;;;;;;28.30;52.80;;;;;;5006297;28;19967;-77
2023/05/15 13:56:49;;;;;;;;;;;28.30;52.70;;;;;;4994708;28;20396;-78
2023/05/15 13:59:15;;;;;;;;;;;28.30;52.70;;;;;;5028926;28;20043;-78
2023/05/15 14:01:40;;;;;;;;;;;28.40;52.80;;;;;;5010036;28;19920;-77
2023/05/15 14:04:06;;;;;;;;;;;28.40;52.70;;;;;;5013881;28;19929;-78
2023/05/15 14:06:31;;;;;;;;;;;28.60;52.70;;;;;;5026550;28;19932;-77
2023/05/15 14:08:57;;;;;;;;;;;28.70;52.60;;;;;;5026427;28;20006;-76
2023/05/15 14:11:22;;;;;;;;;;;28.80;52.60;;;;;;5008722;28;19921;-77
2023/05/15 14:13:48;;;;;;;;;;;29.00;52.40;;;;;;5013427;28;19976;-78